createdAt,value
2019-03-12T00:00:51.744Z,94.90
2019-03-12T00:03:21.105Z,94.90
2019-03-12T00:05:50.483Z,94.90
2019-03-12T00:08:19.848Z,94.90
2019-03-12T00:10:49.228Z,95.00
2019-03-12T00:13:18.656Z,94.90
2019-03-12T00:15:48.004Z,95.00
2019-03-12T00:18:17.365Z,94.90
2019-03-12T00:20:46.739Z,94.90
2019-03-12T00:23:16.117Z,94.90
2019-03-12T00:25:45.467Z,95.00
2019-03-12T00:28:14.830Z,95.00
2019-03-12T00:30:44.204Z,95.00
2019-03-12T00:33:13.583Z,95.00
2019-03-12T00:35:42.944Z,95.00
2019-03-12T00:38:12.375Z,94.90
2019-03-12T00:40:41.764Z,94.90
2019-03-12T00:43:11.458Z,94.90
2019-03-12T00:45:41.086Z,94.90
2019-03-12T00:48:10.448Z,95.10
2019-03-12T00:50:39.818Z,94.80
2019-03-12T00:53:09.571Z,94.70
2019-03-12T00:55:38.950Z,94.70
2019-03-12T00:58:08.290Z,94.70
2019-03-12T01:00:37.680Z,94.70
2019-03-12T01:03:07.118Z,94.70
2019-03-12T01:05:36.478Z,94.70
2019-03-12T01:08:06.139Z,94.60
2019-03-12T01:10:35.787Z,94.60
2019-03-12T01:13:14.933Z,94.50
2019-03-12T01:15:44.363Z,94.50
2019-03-12T01:18:14.062Z,94.50
2019-03-12T01:20:43.555Z,94.50
2019-03-12T01:23:12.914Z,94.40
2019-03-12T01:25:42.273Z,94.40
2019-03-12T01:28:11.643Z,94.40
2019-03-12T01:30:41.012Z,94.40
2019-03-12T01:33:10.414Z,94.40
2019-03-12T01:35:39.790Z,94.40
2019-03-12T01:38:09.228Z,94.40
2019-03-12T01:40:38.616Z,94.40
2019-03-12T01:43:07.955Z,94.40
2019-03-12T01:45:37.312Z,94.40
2019-03-12T01:48:06.925Z,94.40
2019-03-12T01:50:36.287Z,94.40
2019-03-12T01:53:05.669Z,94.80
2019-03-12T01:55:35.031Z,94.40
2019-03-12T01:58:05.545Z,94.40
2019-03-12T02:00:34.910Z,94.40
2019-03-12T02:03:04.413Z,94.40
2019-03-12T02:05:33.796Z,94.50
2019-03-12T02:08:03.139Z,94.60
2019-03-12T02:10:32.780Z,94.50
2019-03-12T02:13:02.154Z,94.60
2019-03-12T02:15:31.514Z,94.60
2019-03-12T02:18:00.888Z,94.60
2019-03-12T02:20:30.256Z,94.60
2019-03-12T02:22:59.633Z,94.60
2019-03-12T02:25:28.988Z,94.70
2019-03-12T02:27:58.612Z,94.80
2019-03-12T02:30:27.983Z,94.70
2019-03-12T02:32:57.674Z,94.80
2019-03-12T02:35:27.277Z,94.80
2019-03-12T02:37:56.634Z,94.90
2019-03-12T02:40:26.604Z,94.90
2019-03-12T02:42:55.977Z,94.90
2019-03-12T02:45:25.333Z,94.90
2019-03-12T02:47:55.036Z,95.00
2019-03-12T02:50:24.472Z,95.00
2019-03-12T02:52:53.822Z,95.00
2019-03-12T02:55:23.187Z,95.00
2019-03-12T02:57:52.560Z,95.00
2019-03-12T03:00:24.257Z,95.00
2019-03-12T03:02:53.619Z,95.00
2019-03-12T03:05:23.666Z,95.10
2019-03-12T03:07:55.583Z,95.20
2019-03-12T03:10:25.034Z,95.30
2019-03-12T03:12:54.399Z,95.30
2019-03-12T03:15:35.817Z,95.20
2019-03-12T03:18:05.276Z,95.30
2019-03-12T03:20:34.640Z,95.60
2019-03-12T03:23:04.063Z,95.30
2019-03-12T03:25:33.476Z,95.30
2019-03-12T03:28:02.830Z,95.30
2019-03-12T03:30:32.511Z,95.40
2019-03-12T03:33:01.849Z,95.50
2019-03-12T03:35:31.272Z,95.60
2019-03-12T03:38:00.584Z,95.60
2019-03-12T03:40:29.964Z,95.70
2019-03-12T03:42:59.465Z,95.60
2019-03-12T03:45:28.876Z,95.70
2019-03-12T03:47:58.226Z,95.60
2019-03-12T03:50:27.897Z,95.60
2019-03-12T03:52:57.257Z,95.60
2019-03-12T03:55:26.635Z,95.50
2019-03-12T03:57:56.055Z,95.70
2019-03-12T04:00:26.105Z,95.70
2019-03-12T04:02:55.457Z,95.80
2019-03-12T04:05:25.083Z,95.80
2019-03-12T04:07:54.452Z,96.00
2019-03-12T04:10:24.733Z,95.90
2019-03-12T04:12:54.104Z,96.00
2019-03-12T04:15:23.473Z,96.10
2019-03-12T04:17:53.147Z,96.20
2019-03-12T04:20:22.510Z,96.30
2019-03-12T04:22:51.877Z,96.30
2019-03-12T04:25:21.250Z,96.30
2019-03-12T04:27:50.607Z,96.30
2019-03-12T04:30:20.635Z,96.40
2019-03-12T04:32:49.994Z,96.30
2019-03-12T04:35:34.012Z,96.40
2019-03-12T04:38:03.357Z,96.40
2019-03-12T04:40:32.733Z,96.30
2019-03-12T04:43:02.102Z,96.30
2019-03-12T04:45:31.476Z,96.20
2019-03-12T04:48:00.837Z,96.20
2019-03-12T04:50:30.213Z,96.20
2019-03-12T04:52:59.897Z,96.10
2019-03-12T04:55:29.277Z,96.00
2019-03-12T04:57:58.649Z,96.00
2019-03-12T05:00:28.017Z,95.90
2019-03-12T05:02:57.708Z,95.90
2019-03-12T05:05:27.075Z,95.80
2019-03-12T05:07:56.451Z,95.80
2019-03-12T05:10:25.839Z,95.70
2019-03-12T05:12:55.187Z,95.70
2019-03-12T05:15:24.553Z,95.70
2019-03-12T05:17:54.270Z,95.60
2019-03-12T05:20:23.635Z,96.00
2019-03-12T05:22:53.017Z,95.50
2019-03-12T05:25:22.695Z,95.40
2019-03-12T05:27:52.039Z,95.40
2019-03-12T05:30:21.655Z,95.40
2019-03-12T05:32:51.362Z,95.30
2019-03-12T05:35:20.728Z,95.20
2019-03-12T05:37:50.102Z,95.30
2019-03-12T05:40:19.464Z,95.20
2019-03-12T05:42:49.523Z,95.20
2019-03-12T05:45:19.295Z,95.00
2019-03-12T05:47:48.684Z,95.00
2019-03-12T05:50:19.753Z,94.90
2019-03-12T05:52:49.645Z,94.90
2019-03-12T05:55:19.162Z,94.80
2019-03-12T05:57:48.539Z,94.80
2019-03-12T06:00:23.113Z,94.80
2019-03-12T06:02:52.486Z,94.60
2019-03-12T06:05:22.561Z,94.60
2019-03-12T06:07:55.221Z,94.40
2019-03-12T06:10:23.027Z,94.10
2019-03-12T06:12:52.401Z,94.20
2019-03-12T06:15:22.736Z,94.10
2019-03-12T06:17:52.107Z,94.10
2019-03-12T06:20:21.482Z,93.50
2019-03-12T06:22:51.181Z,93.30
2019-03-12T06:25:20.542Z,93.30
2019-03-12T06:30:26.143Z,93.10
2019-03-12T06:33:06.542Z,92.80
2019-03-12T06:35:37.552Z,92.90
2019-03-12T06:38:17.047Z,92.70
2019-03-12T06:40:51.003Z,92.60
2019-03-12T06:43:38.199Z,92.60
2019-03-12T06:46:25.636Z,92.40
2019-03-12T06:49:02.569Z,92.50
2019-03-12T06:51:45.570Z,92.50
2019-03-12T06:54:25.117Z,92.40
2019-03-12T06:56:56.122Z,92.30
2019-03-12T06:59:29.807Z,92.50
2019-03-12T07:02:15.204Z,92.30
2019-03-12T07:05:02.555Z,92.30
2019-03-12T07:07:49.394Z,92.20
2019-03-12T07:10:20.397Z,92.10
2019-03-12T07:12:51.414Z,92.00
2019-03-12T07:15:22.420Z,92.10
2019-03-12T07:18:05.410Z,92.00
2019-03-12T07:20:52.485Z,91.90
2019-03-12T07:23:26.669Z,92.10
2019-03-12T07:25:57.682Z,91.80
2019-03-12T07:28:29.001Z,91.90
2019-03-12T07:31:06.777Z,91.80
2019-03-12T07:33:46.865Z,91.60
2019-03-12T07:36:27.043Z,91.30
2019-03-12T07:38:58.360Z,91.50
2019-03-12T07:41:32.491Z,91.70
2019-03-12T07:44:02.117Z,91.60
2019-03-12T07:46:42.345Z,91.50
2019-03-12T07:49:31.541Z,91.70
2019-03-12T07:52:08.455Z,91.70
2019-03-12T07:54:40.690Z,91.90
2019-03-12T07:57:21.201Z,91.90
2019-03-12T07:59:52.234Z,92.10
2019-03-12T08:02:38.305Z,92.00
2019-03-12T08:05:28.694Z,92.00
2019-03-12T08:08:05.393Z,91.90
2019-03-12T08:10:41.896Z,91.80
2019-03-12T08:13:30.875Z,92.00
2019-03-12T08:16:04.861Z,91.50
2019-03-12T08:18:38.564Z,91.60
2019-03-12T08:21:27.771Z,91.60
2019-03-12T08:24:13.570Z,91.40
2019-03-12T08:27:01.651Z,91.30
2019-03-12T08:29:38.733Z,91.30
2019-03-12T08:32:28.165Z,91.40
2019-03-12T08:35:14.106Z,91.40
2019-03-12T08:37:47.996Z,90.80
2019-03-12T08:40:19.627Z,90.70
2019-03-12T08:43:05.648Z,90.80
2019-03-12T08:45:53.100Z,91.10
2019-03-12T08:48:40.451Z,90.80
2019-03-12T08:51:26.407Z,90.90
2019-03-12T08:54:00.102Z,90.40
2019-03-12T08:56:37.657Z,90.50
2019-03-12T08:59:26.740Z,90.00
2019-03-12T09:02:02.506Z,90.30
2019-03-12T09:04:39.243Z,88.70
2019-03-12T09:07:12.924Z,88.60
2019-03-12T09:09:46.334Z,89.20
2019-03-12T09:12:33.756Z,89.20
2019-03-12T09:15:07.950Z,87.80
2019-03-12T09:17:41.758Z,87.80
2019-03-12T09:20:19.921Z,87.10
2019-03-12T09:22:53.663Z,87.70
2019-03-12T09:25:27.100Z,88.00
2019-03-12T09:28:16.082Z,87.20
2019-03-12T09:30:50.013Z,87.50
2019-03-12T09:33:21.017Z,87.70
2019-03-12T09:35:52.027Z,87.50
2019-03-12T09:38:38.787Z,87.20
2019-03-12T09:41:21.639Z,87.30
2019-03-12T09:43:58.594Z,88.00
2019-03-12T09:46:32.299Z,87.20
2019-03-12T09:49:11.950Z,87.20
2019-03-12T09:51:46.878Z,87.60
2019-03-12T09:54:34.224Z,86.80
2019-03-12T09:57:21.359Z,85.90
2019-03-12T09:59:55.440Z,86.20
2019-03-12T10:02:26.469Z,86.50
2019-03-12T10:04:59.881Z,85.80
2019-03-12T10:07:30.897Z,83.80
2019-03-12T10:10:07.757Z,84.50
2019-03-12T10:12:50.807Z,84.30
2019-03-12T10:15:27.671Z,83.20
2019-03-12T10:18:02.465Z,83.70
2019-03-12T10:20:47.097Z,82.60
2019-03-12T10:23:24.051Z,81.90
2019-03-12T10:26:13.665Z,80.10
2019-03-12T10:28:56.648Z,78.80
2019-03-12T10:31:42.490Z,77.60
2019-03-12T10:34:30.873Z,77.20
2019-03-12T10:37:12.446Z,77.70
2019-03-12T10:40:12.474Z,76.10
2019-03-12T10:43:06.600Z,75.30
2019-03-12T10:45:40.038Z,75.70
2019-03-12T10:48:11.116Z,75.00
2019-03-12T10:50:40.550Z,76.00
2019-03-12T10:53:10.428Z,76.60
2019-03-12T10:55:39.811Z,73.50
2019-03-12T10:58:09.252Z,75.10
2019-03-12T11:00:39.920Z,75.10
2019-03-12T11:03:09.315Z,75.20
2019-03-12T11:05:45.956Z,76.20
2019-03-12T11:08:10.083Z,76.20
2019-03-12T11:10:39.482Z,70.40
2019-03-12T11:13:08.822Z,71.20
2019-03-12T11:15:38.276Z,68.30
2019-03-12T11:18:07.977Z,71.40
2019-03-12T11:20:37.344Z,70.30
2019-03-12T11:23:06.738Z,71.50
2019-03-12T11:25:36.362Z,70.50
2019-03-12T11:28:05.741Z,70.40
2019-03-12T11:30:35.170Z,70.30
2019-03-12T11:33:04.598Z,70.30
2019-03-12T11:35:39.307Z,69.00
2019-03-12T11:38:05.181Z,69.70
2019-03-12T11:40:35.213Z,68.50
2019-03-12T11:43:04.606Z,68.50
2019-03-12T11:45:53.292Z,67.40
2019-03-12T11:48:22.925Z,68.40
2019-03-12T11:50:52.517Z,67.70
2019-03-12T11:53:21.891Z,69.00
2019-03-12T11:55:51.295Z,69.00
2019-03-12T11:58:20.626Z,68.10
2019-03-12T12:00:51.660Z,68.60
2019-03-12T12:03:20.994Z,68.40
2019-03-12T12:05:50.364Z,65.90
2019-03-12T12:08:19.813Z,65.70
2019-03-12T12:10:50.016Z,66.80
2019-03-12T12:13:19.364Z,67.70
2019-03-12T12:15:48.738Z,67.70
2019-03-12T12:18:18.109Z,67.20
2019-03-12T12:20:47.732Z,65.40
2019-03-12T12:23:17.167Z,67.40
2019-03-12T12:25:46.547Z,66.60
2019-03-12T12:28:16.221Z,66.80
2019-03-12T12:30:45.673Z,66.20
2019-03-12T12:33:15.030Z,67.50
2019-03-12T12:35:44.402Z,66.80
2019-03-12T12:38:13.768Z,64.00
2019-03-12T12:40:46.925Z,66.60
2019-03-12T12:43:16.291Z,66.00
2019-03-12T12:45:45.750Z,67.20
2019-03-12T12:48:15.101Z,67.40
2019-03-12T12:50:44.933Z,68.20
2019-03-12T12:53:14.303Z,66.90
2019-03-12T12:55:43.678Z,66.60
2019-03-12T12:58:13.061Z,66.50
2019-03-12T13:00:43.271Z,62.50
2019-03-12T13:03:12.660Z,64.70
2019-03-12T13:05:42.101Z,61.00
2019-03-12T13:08:11.463Z,61.80
2019-03-12T13:10:41.974Z,61.10
2019-03-12T13:13:11.644Z,63.20
2019-03-12T13:15:41.017Z,63.40
2019-03-12T13:18:10.495Z,61.40
2019-03-12T13:20:39.882Z,60.00
2019-03-12T13:23:09.304Z,61.90
2019-03-12T13:25:38.722Z,59.20
2019-03-12T13:28:08.065Z,60.80
2019-03-12T13:30:37.630Z,59.50
2019-03-12T13:33:06.962Z,58.30
2019-03-12T13:35:36.360Z,60.60
2019-03-12T13:38:05.782Z,58.70
2019-03-12T13:40:35.471Z,57.80
2019-03-12T13:43:05.295Z,59.20
2019-03-12T13:45:35.142Z,61.20
2019-03-12T13:48:04.557Z,60.20
2019-03-12T13:50:34.002Z,59.10
2019-03-12T13:53:03.420Z,59.50
2019-03-12T13:55:32.919Z,59.90
2019-03-12T13:58:02.342Z,60.60
2019-03-12T14:00:33.329Z,60.60
2019-03-12T14:03:02.806Z,59.80
2019-03-12T14:05:32.168Z,60.50
2019-03-12T14:08:01.550Z,58.30
2019-03-12T14:10:30.915Z,58.40
2019-03-12T14:13:00.626Z,58.70
2019-03-12T14:15:33.767Z,59.40
2019-03-12T14:18:03.254Z,59.70
2019-03-12T14:21:05.988Z,59.40
2019-03-12T14:23:42.729Z,60.00
2019-03-12T14:26:14.023Z,59.70
2019-03-12T14:28:43.455Z,59.00
2019-03-12T14:31:12.898Z,59.40
2019-03-12T14:33:42.265Z,58.30
2019-03-12T14:36:11.623Z,59.30
2019-03-12T14:38:40.991Z,59.30
2019-03-12T14:41:10.486Z,59.10
2019-03-12T14:43:39.914Z,58.60
2019-03-12T14:46:09.419Z,58.70
2019-03-12T14:48:43.414Z,58.40
2019-03-12T14:51:34.926Z,58.30
2019-03-12T14:54:07.669Z,58.50
2019-03-12T14:56:37.127Z,58.10
2019-03-12T14:59:06.562Z,59.60
2019-03-12T15:01:36.005Z,59.10
2019-03-12T15:04:05.996Z,59.00
2019-03-12T15:06:35.766Z,59.60
2019-03-12T15:09:11.881Z,58.10
2019-03-12T15:11:41.321Z,59.10
2019-03-12T15:14:10.840Z,58.50
2019-03-12T15:16:40.213Z,58.70
2019-03-12T15:19:09.590Z,57.50
2019-03-12T15:21:38.972Z,56.30
2019-03-12T15:24:08.337Z,56.30
2019-03-12T15:26:37.695Z,56.10
2019-03-12T15:29:07.065Z,55.60
2019-03-12T15:31:36.505Z,57.00
2019-03-12T15:34:05.877Z,56.90
2019-03-12T15:36:35.262Z,57.00
2019-03-12T15:39:07.067Z,56.00
2019-03-12T15:41:36.429Z,55.90
2019-03-12T15:44:05.886Z,56.30
2019-03-12T15:46:35.260Z,56.70
2019-03-12T15:49:04.709Z,56.80
2019-03-12T15:51:34.081Z,56.50
2019-03-12T15:54:03.462Z,56.80
2019-03-12T15:56:32.830Z,57.40
2019-03-12T15:59:02.196Z,56.90
2019-03-12T16:01:31.563Z,57.00
2019-03-12T16:04:00.941Z,57.30
2019-03-12T16:06:30.623Z,56.70
2019-03-12T16:09:00.002Z,57.20
2019-03-12T16:11:31.240Z,58.80
2019-03-12T16:14:00.460Z,57.40
2019-03-12T16:16:29.824Z,57.20
2019-03-12T16:18:59.182Z,58.00
2019-03-12T16:21:28.571Z,58.00
2019-03-12T16:23:58.897Z,58.40
2019-03-12T16:26:28.245Z,58.10
2019-03-12T16:28:57.610Z,59.00
2019-03-12T16:31:26.975Z,57.40
2019-03-12T16:33:56.372Z,57.70
2019-03-12T16:36:25.748Z,57.50
2019-03-12T16:38:55.117Z,57.40
2019-03-12T16:41:24.610Z,56.70
2019-03-12T16:43:53.939Z,56.50
2019-03-12T16:46:23.352Z,57.20
2019-03-12T16:48:52.707Z,56.40
2019-03-12T16:51:22.085Z,56.50
2019-03-12T16:53:52.677Z,56.00
2019-03-12T16:56:22.041Z,55.60
2019-03-12T16:58:51.407Z,56.10
2019-03-12T17:01:21.732Z,55.70
2019-03-12T17:03:51.272Z,56.70
2019-03-12T17:06:20.653Z,56.80
2019-03-12T17:08:50.015Z,56.70
2019-03-12T17:11:19.380Z,56.70
2019-03-12T17:13:49.944Z,57.40
2019-03-12T17:16:19.375Z,57.00
2019-03-12T17:18:48.986Z,57.40
2019-03-12T17:21:18.363Z,57.00
2019-03-12T17:23:47.727Z,57.20
2019-03-12T17:26:17.102Z,57.70
2019-03-12T17:28:46.750Z,57.80
2019-03-12T17:31:16.137Z,58.40
2019-03-12T17:33:45.495Z,58.30
2019-03-12T17:36:14.868Z,58.00
2019-03-12T17:38:46.798Z,58.30
2019-03-12T17:41:15.334Z,58.30
2019-03-12T17:43:44.705Z,58.40
2019-03-12T17:46:14.073Z,58.10
2019-03-12T17:48:43.446Z,58.30
2019-03-12T17:51:12.892Z,58.60
2019-03-12T17:53:42.260Z,58.90
2019-03-12T17:56:11.641Z,58.40
2019-03-12T17:58:40.998Z,58.20
2019-03-12T18:01:10.418Z,58.90
2019-03-12T18:03:39.826Z,59.20
2019-03-12T18:06:09.149Z,58.90
2019-03-12T18:08:38.527Z,59.00
2019-03-12T18:11:08.242Z,59.00
2019-03-12T18:13:37.606Z,58.80
2019-03-12T18:16:07.216Z,58.70
2019-03-12T18:18:36.583Z,58.50
2019-03-12T18:21:05.949Z,59.10
2019-03-12T18:23:35.591Z,58.70
2019-03-12T18:26:07.910Z,58.50
2019-03-12T18:28:37.283Z,58.90
2019-03-12T18:31:06.647Z,58.10
2019-03-12T18:33:36.024Z,59.00
2019-03-12T18:36:05.461Z,58.90
2019-03-12T18:38:34.836Z,59.00
2019-03-12T18:41:04.289Z,59.10
2019-03-12T18:43:33.661Z,59.30
2019-03-12T18:46:03.034Z,59.30
2019-03-12T18:48:44.447Z,59.40
2019-03-12T18:51:15.264Z,59.40
2019-03-12T18:53:45.008Z,60.10
2019-03-12T18:56:14.374Z,60.70
2019-03-12T18:58:43.746Z,60.90
2019-03-12T19:01:13.267Z,61.80
2019-03-12T19:03:46.469Z,62.10
2019-03-12T19:06:16.235Z,62.50
2019-03-12T19:08:48.147Z,62.80
2019-03-12T19:11:17.290Z,64.60
2019-03-12T19:13:46.797Z,65.10
2019-03-12T19:16:16.505Z,66.50
2019-03-12T19:18:45.956Z,67.60
2019-03-12T19:21:16.296Z,68.10
2019-03-12T19:23:45.696Z,69.60
2019-03-12T19:26:15.060Z,71.40
2019-03-12T19:28:44.500Z,72.20
2019-03-12T19:31:15.585Z,73.40
2019-03-12T19:33:45.329Z,75.30
2019-03-12T19:36:14.770Z,76.20
2019-03-12T19:38:44.221Z,76.30
2019-03-12T19:43:42.725Z,77.50
2019-03-12T19:46:12.182Z,78.60
2019-03-12T19:48:41.555Z,79.10
2019-03-12T19:51:10.926Z,79.00
2019-03-12T19:53:40.301Z,79.90
2019-03-12T19:56:10.342Z,80.70
2019-03-12T19:58:39.730Z,80.90
2019-03-12T20:01:09.716Z,81.30
2019-03-12T20:03:39.068Z,82.40
2019-03-12T20:06:09.718Z,82.70
2019-03-12T20:08:39.361Z,84.10
2019-03-12T20:11:51.711Z,83.50
2019-03-12T20:14:43.967Z,83.90
2019-03-12T20:17:38.300Z,84.60
2019-03-12T20:20:47.612Z,85.20
2019-03-12T20:23:59.460Z,85.30
2019-03-12T20:26:57.134Z,85.30
2019-03-12T20:29:52.351Z,86.10
2019-03-12T20:32:58.572Z,86.50
2019-03-12T20:35:55.927Z,88.00
2019-03-12T20:39:06.376Z,88.20
2019-03-12T20:42:02.788Z,88.50
2019-03-12T20:45:05.256Z,89.80
2019-03-12T20:48:12.392Z,89.80
2019-03-12T20:51:22.377Z,90.40
2019-03-12T20:54:14.233Z,90.20
2019-03-12T20:57:03.125Z,90.40
2019-03-12T21:00:07.568Z,90.40
2019-03-12T21:03:26.063Z,90.10
2019-03-12T21:06:38.798Z,90.10
2019-03-12T21:09:58.556Z,89.30
2019-03-12T21:12:56.041Z,89.70
2019-03-12T21:15:55.264Z,90.00
2019-03-12T21:18:54.453Z,90.80
2019-03-12T21:22:03.635Z,90.90
2019-03-12T21:24:59.061Z,91.10
2019-03-12T21:27:35.848Z,91.10
2019-03-12T21:30:03.728Z,91.70
2019-03-12T21:32:33.336Z,92.10
2019-03-12T21:35:02.686Z,92.20
2019-03-12T21:37:32.348Z,92.20
2019-03-12T21:40:02.537Z,92.30
2019-03-12T21:42:31.908Z,92.30
2019-03-12T21:45:01.271Z,92.70
2019-03-12T21:47:30.633Z,92.60
2019-03-12T21:49:59.998Z,92.60
2019-03-12T21:52:29.374Z,92.70
2019-03-12T21:54:58.721Z,92.50
2019-03-12T21:57:28.317Z,92.60
2019-03-12T21:59:57.674Z,92.60
2019-03-12T22:02:27.079Z,92.70
2019-03-12T22:04:56.425Z,93.00
2019-03-12T22:07:25.866Z,92.90
2019-03-12T22:09:55.246Z,93.00
2019-03-12T22:12:24.853Z,93.00
2019-03-12T22:14:54.201Z,93.00
2019-03-12T22:17:23.642Z,92.80
2019-03-12T22:19:53.001Z,93.00
2019-03-12T22:22:26.956Z,93.00
2019-03-12T22:24:56.313Z,93.10
2019-03-12T22:27:25.702Z,92.90
2019-03-12T22:29:55.073Z,92.80
2019-03-12T22:32:24.487Z,92.70
2019-03-12T22:34:53.843Z,92.90
2019-03-12T22:37:23.269Z,92.90
2019-03-12T22:39:53.790Z,92.70
2019-03-12T22:42:23.151Z,92.60
2019-03-12T22:44:52.538Z,92.70
2019-03-12T22:47:22.171Z,92.60
2019-03-12T22:49:51.576Z,92.40
2019-03-12T22:52:20.946Z,92.40
2019-03-12T22:54:50.347Z,92.40
2019-03-12T22:57:19.695Z,92.20
2019-03-12T22:59:49.061Z,92.20
2019-03-12T23:02:18.445Z,92.20
2019-03-12T23:04:47.813Z,92.80
2019-03-12T23:07:17.260Z,92.10
2019-03-12T23:09:46.646Z,92.00
2019-03-12T23:12:17.035Z,91.90
2019-03-12T23:14:46.665Z,92.00
2019-03-12T23:17:16.309Z,92.00
2019-03-12T23:19:46.029Z,92.10
2019-03-12T23:22:15.668Z,92.00
2019-03-12T23:24:45.095Z,92.10
2019-03-12T23:27:14.464Z,92.50
2019-03-12T23:29:43.835Z,92.30
2019-03-12T23:32:13.372Z,92.40
2019-03-12T23:34:42.747Z,92.50
2019-03-12T23:37:12.186Z,92.70
2019-03-12T23:39:41.560Z,92.60
2019-03-12T23:42:11.355Z,92.60
2019-03-12T23:44:40.725Z,92.60
2019-03-12T23:47:10.083Z,92.50
2019-03-12T23:49:39.479Z,92.50
2019-03-12T23:52:09.039Z,92.60
2019-03-12T23:54:41.905Z,92.50
2019-03-12T23:57:11.399Z,92.40
2019-03-12T23:59:40.973Z,92.40
